Time;durP1;ratioP1;P1;durP2;ratioP2;P2;SDS_P1;SDS_P2;PMS_P1;PMS_P2;Temp;Humidity;BMP_temperature;BMP_pressure;BME280_temperature;BME280_humidity;BME280_pressure;Samples;Min_cycle;Max_cycle;Signal;HPM_P1;HPM_P2
2022/05/25 14:08:21;;;;;;;16.35;9.07;;;30.40;51.00;;;;;;5065142;28;20447;-51
2022/05/25 14:11:12;;;;;;;17.40;8.93;;;31.10;44.00;;;;;;5047952;28;20026;-50
2022/05/25 14:13:40;;;;;;;12.75;8.43;;;31.80;42.40;;;;;;5027545;28;144648;-50
2022/05/25 14:16:29;;;;;;;12.10;7.88;;;31.80;42.00;;;;;;4996500;28;20085;-53
2022/05/25 14:19:01;;;;;;;66.50;51.80;;;32.00;41.80;;;;;;4975954;28;20034;-55
2022/05/25 14:21:30;;;;;;;20.70;13.18;;;32.40;42.00;;;;;;5003559;28;166885;-52
2022/05/25 14:23:57;;;;;;;11.07;6.53;;;32.70;42.20;;;;;;5026932;28;20029;-50
2022/05/25 14:26:26;;;;;;;10.05;6.45;;;32.60;40.50;;;;;;5028256;28;20498;-52
2022/05/25 14:28:52;;;;;;;11.73;6.65;;;32.10;40.60;;;;;;5028440;28;20097;-55
2022/05/25 14:31:21;;;;;;;9.90;5.68;;;31.50;42.20;;;;;;5017137;28;20109;-51
2022/05/25 14:34:01;;;;;;;9.07;5.50;;;31.30;42.30;;;;;;5023845;28;20026;-53
2022/05/25 14:36:27;;;;;;;6.43;4.72;;;31.70;42.10;;;;;;5027470;28;20037;-54
2022/05/25 14:38:53;;;;;;;17.60;8.15;;;32.60;40.90;;;;;;5025909;28;20025;-52
2022/05/25 14:41:24;;;;;;;15.90;7.78;;;32.80;39.40;;;;;;5026812;28;20033;-52
2022/05/25 14:43:51;;;;;;;14.20;6.53;;;32.10;40.50;;;;;;5026774;28;20084;-53
2022/05/25 14:46:27;;;;;;;;;;;31.60;41.30;;;;;;5023965;28;20092;-51
2022/05/25 14:48:56;;;;;;;12.60;6.20;;;30.80;42.70;;;;;;5024613;28;19955;-53
2022/05/25 14:51:28;;;;;;;9.10;5.32;;;30.60;43.20;;;;;;4967533;28;48951;-51
2022/05/25 14:54:24;;;;;;;10.43;5.32;;;30.40;43.00;;;;;;4876760;28;20038;-51
2022/05/25 14:56:52;;;;;;;9.88;4.10;;;30.40;43.20;;;;;;4960739;28;71304;-50
2022/05/25 14:59:30;;;;;;;9.02;5.68;;;30.20;43.20;;;;;;4968271;28;20070;-51
2022/05/25 15:01:57;;;;;;;10.63;5.63;;;30.00;43.20;;;;;;4973438;28;20123;-53
2022/05/25 15:04:33;;;;;;;10.20;5.53;;;29.80;44.10;;;;;;5004117;28;20022;-50
2022/05/25 15:06:59;;;;;;;10.38;4.43;;;29.80;44.60;;;;;;5014405;28;65688;-50
2022/05/25 15:09:37;;;;;;;9.02;4.90;;;29.90;44.30;;;;;;5026890;28;20018;-49
2022/05/25 15:12:24;;;;;;;8.48;4.75;;;29.50;44.00;;;;;;5027728;28;20100;-51
2022/05/25 15:18:34;;;;;;;9.25;4.40;;;29.10;45.00;;;;;;5024024;28;20076;-54
2022/05/25 15:21:24;;;;;;;9.63;3.97;;;28.90;45.60;;;;;;5014403;28;20491;-53
2022/05/25 15:24:00;;;;;;;9.57;4.38;;;28.80;45.60;;;;;;5005718;28;20152;-54
2022/05/25 15:26:35;;;;;;;18.05;4.30;;;28.70;45.90;;;;;;5012965;28;20030;-52
2022/05/25 15:29:32;;;;;;;11.40;4.57;;;28.60;46.20;;;;;;5011689;28;20402;-52
2022/05/25 15:31:59;;;;;;;9.40;4.75;;;28.20;46.00;;;;;;5012775;28;20108;-52
2022/05/25 15:34:25;;;;;;;9.27;4.32;;;27.90;47.30;;;;;;5014240;28;20026;-55
2022/05/25 15:36:51;;;;;;;12.23;5.10;;;27.80;47.00;;;;;;5013583;28;20518;-60
2022/05/25 15:39:17;;;;;;;11.52;4.93;;;27.60;47.50;;;;;;5014180;28;20030;-57
2022/05/25 15:41:44;;;;;;;7.43;4.03;;;27.50;48.10;;;;;;5013645;28;20025;-58
2022/05/25 15:44:11;;;;;;;13.27;4.50;;;27.50;47.70;;;;;;5014404;28;20053;-58
2022/05/25 15:46:42;;;;;;;8.68;3.90;;;27.50;47.80;;;;;;5028951;28;20113;-57
2022/05/25 15:49:15;;;;;;;13.00;4.70;;;27.60;48.40;;;;;;5013949;28;20017;-60
2022/05/25 15:52:09;;;;;;;8.23;4.65;;;27.60;47.30;;;;;;5013762;28;20518;-60
2022/05/25 15:54:37;;;;;;;10.82;3.72;;;27.60;47.30;;;;;;5012245;28;20101;-60
2022/05/25 15:57:03;;;;;;;9.13;3.90;;;27.50;47.70;;;;;;5013718;28;20026;-60
2022/05/25 15:59:29;;;;;;;;;;;27.70;47.90;;;;;;5014280;28;20411;-60
2022/05/25 16:01:58;;;;;;;11.77;4.72;;;27.80;48.30;;;;;;5012172;28;20480;-60
2022/05/25 16:04:31;;;;;;;11.60;5.32;;;27.80;47.30;;;;;;5013305;28;20092;-59
2022/05/25 16:06:58;;;;;;;9.88;2.97;;;27.80;47.00;;;;;;5013722;28;20112;-60
2022/05/25 16:09:25;;;;;;;11.60;4.80;;;28.00;47.80;;;;;;5013231;28;20022;-57
2022/05/25 16:11:53;;;;;;;;;;;28.10;48.80;;;;;;5013935;28;20019;-58
2022/05/25 16:14:20;;;;;;;8.07;5.43;;;28.10;49.00;;;;;;5008836;28;19941;-56
2022/05/25 16:16:47;;;;;;;11.32;5.68;;;28.00;48.40;;;;;;5012774;28;20033;-58
2022/05/25 16:19:18;;;;;;;7.07;3.75;;;28.00;49.30;;;;;;5013241;28;20083;-58
2022/05/25 16:21:45;;;;;;;10.73;3.83;;;28.00;49.30;;;;;;5013071;28;20491;-57
2022/05/25 16:24:11;;;;;;;10.50;4.35;;;28.10;48.70;;;;;;5013131;28;20054;-59
2022/05/25 16:26:38;;;;;;;14.95;4.53;;;28.20;48.80;;;;;;5012960;28;20083;-56
2022/05/25 16:29:05;;;;;;;11.32;3.75;;;28.30;48.60;;;;;;5012305;28;20080;-57
2022/05/25 16:31:32;;;;;;;8.40;3.35;;;28.50;48.60;;;;;;5011774;28;20018;-55
2022/05/25 16:34:06;;;;;;;13.27;4.32;;;28.50;47.50;;;;;;5012780;28;20026;-57
2022/05/25 16:36:32;;;;;;;7.82;3.80;;;28.50;47.70;;;;;;5012905;28;20479;-60
2022/05/25 16:38:58;;;;;;;9.30;3.95;;;28.40;48.00;;;;;;5011574;28;20538;-60
2022/05/25 16:41:28;;;;;;;7.13;3.75;;;28.40;48.00;;;;;;5011465;28;20033;-60
2022/05/25 16:43:54;;;;;;;13.75;3.60;;;28.10;47.90;;;;;;5012724;28;20026;-60
2022/05/25 16:46:21;;;;;;;7.07;3.72;;;27.90;48.30;;;;;;5012688;28;20080;-60
2022/05/25 16:48:48;;;;;;;11.77;4.38;;;27.90;48.80;;;;;;5012465;28;20101;-60
2022/05/25 16:51:16;;;;;;;5.68;4.00;;;27.80;48.70;;;;;;5012690;28;20444;-60
2022/05/25 16:53:42;;;;;;;10.80;4.78;;;27.70;49.00;;;;;;5010699;28;20031;-60
2022/05/25 16:56:09;;;;;;;8.97;4.63;;;27.60;49.10;;;;;;5002245;28;20041;-60
2022/05/25 16:58:36;;;;;;;16.48;5.25;;;27.70;49.50;;;;;;5009949;28;20061;-60
2022/05/25 17:01:02;;;;;;;13.38;4.97;;;27.90;49.40;;;;;;5007575;28;20046;-60
2022/05/25 17:03:29;;;;;;;14.45;5.97;;;28.00;49.30;;;;;;5009282;28;20494;-62
2022/05/25 17:05:56;;;;;;;14.63;5.32;;;28.10;49.10;;;;;;5009285;28;20529;-62
2022/05/25 17:08:24;;;;;;;12.55;5.13;;;28.10;49.10;;;;;;5012216;28;20032;-63
2022/05/25 17:10:52;;;;;;;10.30;6.72;;;28.00;49.50;;;;;;5010826;28;20071;-63
2022/05/25 17:13:18;;;;;;;10.75;5.88;;;28.00;49.60;;;;;;5001815;28;20394;-63
2022/05/25 17:15:43;;;;;;;9.50;5.50;;;28.10;49.80;;;;;;5006102;28;20018;-60
2022/05/25 17:18:09;;;;;;;10.67;6.40;;;28.10;49.70;;;;;;5006394;28;20034;-60
2022/05/25 17:20:35;;;;;;;10.05;5.82;;;28.00;49.70;;;;;;5008585;28;20038;-60
2022/05/25 17:23:06;;;;;;;10.20;5.93;;;28.00;49.90;;;;;;4992302;28;20106;-60
2022/05/25 17:25:32;;;;;;;15.63;6.03;;;27.90;50.00;;;;;;4987868;28;20503;-60
2022/05/25 17:28:01;;;;;;;8.00;5.28;;;27.90;50.30;;;;;;4982379;28;20045;-60
2022/05/25 17:30:30;;;;;;;14.07;6.13;;;27.80;50.60;;;;;;4982005;28;20516;-60
2022/05/25 17:32:56;;;;;;;15.15;5.85;;;27.70;50.80;;;;;;4983922;28;20097;-59
2022/05/25 17:35:22;;;;;;;13.05;6.20;;;27.70;50.90;;;;;;4987411;28;20070;-60
2022/05/25 17:43:21;;;;;;;14.13;6.28;;;27.40;51.00;;;;;;4987378;23;20546;-62
2022/05/25 17:45:48;;;;;;;10.80;5.53;;;27.20;51.10;;;;;;4960577;28;20031;-61
2022/05/25 17:48:14;;;;;;;;;;;27.20;50.70;;;;;;4967852;28;20387;-62
2022/05/25 17:50:40;;;;;;;8.00;4.95;;;27.10;50.50;;;;;;4961752;28;19916;-62
2022/05/25 17:53:08;;;;;;;9.07;4.03;;;26.90;50.90;;;;;;4965915;28;20586;-62
2022/05/25 17:55:37;;;;;;;6.97;4.28;;;26.90;51.10;;;;;;4963196;28;20022;-62
2022/05/25 17:58:06;;;;;;;11.80;4.68;;;26.90;51.20;;;;;;4963225;28;20121;-61
2022/05/25 18:00:32;;;;;;;15.68;8.13;;;26.90;51.20;;;;;;4961321;28;20031;-59
2022/05/25 18:02:58;;;;;;;17.58;12.18;;;27.00;51.00;;;;;;4971428;28;20030;-59
2022/05/25 18:05:24;;;;;;;9.27;4.32;;;26.90;50.90;;;;;;4968490;28;20027;-59
2022/05/25 18:07:51;;;;;;;9.32;4.97;;;26.90;51.00;;;;;;4969267;28;20131;-62
2022/05/25 18:10:21;;;;;;;11.43;4.53;;;27.00;51.30;;;;;;4969042;28;20613;-63
2022/05/25 18:12:49;;;;;;;10.00;4.30;;;26.90;51.40;;;;;;4967442;28;20090;-62
2022/05/25 18:15:26;;;;;;;8.77;4.40;;;26.80;50.90;;;;;;4966733;28;20026;-63
2022/05/25 18:17:55;;;;;;;11.32;4.90;;;26.70;50.90;;;;;;4968286;28;20090;-63
2022/05/25 18:20:24;;;;;;;8.82;4.28;;;26.70;51.30;;;;;;4969533;28;20031;-63
2022/05/25 18:22:50;;;;;;;11.07;4.35;;;26.60;51.60;;;;;;4969224;28;20038;-63
2022/05/25 18:25:16;;;;;;;14.00;4.60;;;26.70;51.80;;;;;;4960685;28;20050;-63
2022/05/25 18:27:42;;;;;;;11.40;4.93;;;26.70;51.90;;;;;;4966904;28;20035;-62
2022/05/25 18:30:09;;;;;;;9.73;4.40;;;26.70;52.00;;;;;;4961700;28;20059;-63
2022/05/25 18:32:35;;;;;;;12.05;5.85;;;26.80;52.20;;;;;;4963152;28;20126;-58
2022/05/25 18:35:00;;;;;;;20.60;5.70;;;26.80;52.00;;;;;;4963031;28;20080;-65
2022/05/25 18:37:28;;;;;;;14.70;5.27;;;26.80;52.20;;;;;;4961500;28;20486;-65
2022/05/25 18:39:54;;;;;;;12.13;6.00;;;26.80;52.50;;;;;;4968650;28;20031;-65
2022/05/25 18:42:20;;;;;;;13.00;5.22;;;26.80;52.60;;;;;;4970738;28;20474;-65
2022/05/25 18:44:48;;;;;;;10.50;5.77;;;26.80;52.80;;;;;;4961621;28;20039;-62
2022/05/25 18:47:14;;;;;;;13.43;4.90;;;26.70;52.90;;;;;;4967284;28;20023;-62
2022/05/25 18:49:41;;;;;;;9.97;4.47;;;26.70;52.90;;;;;;4969553;28;20474;-63
2022/05/25 18:52:08;;;;;;;8.65;4.15;;;26.70;52.90;;;;;;4979973;28;20038;-62
2022/05/25 18:54:33;;;;;;;;;;;26.60;52.80;;;;;;4973232;28;20395;-62
2022/05/25 18:56:59;;;;;;;14.82;5.22;;;26.60;53.00;;;;;;4966163;28;20396;-58
2022/05/25 18:59:25;;;;;;;9.47;4.93;;;26.60;53.00;;;;;;4965181;28;20122;-59
2022/05/25 19:01:51;;;;;;;13.40;4.80;;;26.60;52.80;;;;;;4973489;28;20030;-58
2022/05/25 19:04:17;;;;;;;7.30;4.63;;;26.60;52.70;;;;;;4976099;28;20031;-58
2022/05/25 19:06:42;;;;;;;9.70;5.30;;;26.50;52.80;;;;;;4961480;28;20027;-57
2022/05/25 19:09:09;;;;;;;12.10;5.70;;;26.50;52.80;;;;;;4956656;28;20046;-58
2022/05/25 19:11:35;;;;;;;;;;;26.40;53.00;;;;;;4962356;28;20025;-57
2022/05/25 19:14:02;;;;;;;6.95;4.88;;;26.40;53.20;;;;;;4975657;28;19964;-57
2022/05/25 19:16:27;;;;;;;;;;;26.30;53.50;;;;;;4974311;28;20086;-58
2022/05/25 19:18:53;;;;;;;13.23;5.53;;;26.30;53.60;;;;;;4974717;28;20322;-58
2022/05/25 19:21:20;;;;;;;10.93;5.33;;;26.20;54.10;;;;;;4974589;28;20026;-58
2022/05/25 19:24:08;;;;;;;13.00;5.35;;;26.10;53.90;;;;;;4975074;28;20038;-57
2022/05/25 19:26:37;;;;;;;15.18;6.55;;;26.20;54.30;;;;;;4975194;28;20113;-59
2022/05/25 19:29:03;;;;;;;17.00;8.80;;;26.00;54.70;;;;;;4975193;28;20065;-58
2022/05/25 19:31:31;;;;;;;18.15;9.65;;;26.00;55.80;;;;;;4974751;28;20066;-58
2022/05/25 19:33:57;;;;;;;21.00;10.57;;;25.90;56.80;;;;;;4974367;28;20514;-57
2022/05/25 19:36:34;;;;;;;17.30;10.60;;;25.80;58.70;;;;;;4975446;28;20065;-58
2022/05/25 19:39:00;;;;;;;24.40;11.80;;;25.60;60.10;;;;;;4974331;28;20035;-58
2022/05/25 19:41:26;;;;;;;19.02;11.45;;;25.50;60.40;;;;;;4974348;28;20038;-59
2022/05/25 19:44:07;;;;;;;23.50;12.27;;;25.60;60.70;;;;;;4974794;28;20462;-57
2022/05/25 19:46:33;;;;;;;21.58;14.45;;;25.50;62.10;;;;;;4974713;28;20106;-59
2022/05/25 19:49:00;;;;;;;21.08;14.93;;;25.40;63.00;;;;;;4974705;28;20031;-58
2022/05/25 19:51:26;;;;;;;19.65;15.30;;;25.30;63.80;;;;;;4968526;28;20031;-58
2022/05/25 19:53:53;;;;;;;25.52;15.00;;;25.30;64.10;;;;;;4968867;28;20019;-58
2022/05/25 19:56:18;;;;;;;;;;;25.30;64.50;;;;;;4974559;28;20033;-59
2022/05/25 19:58:49;;;;;;;24.25;15.70;;;25.20;66.50;;;;;;4972621;28;19910;-58
2022/05/25 20:01:17;;;;;;;23.23;16.35;;;25.10;64.70;;;;;;4973685;28;20049;-58
2022/05/25 20:03:44;;;;;;;27.48;15.57;;;25.10;65.00;;;;;;4958844;28;20058;-59
2022/05/25 20:06:11;;;;;;;25.65;16.17;;;25.10;65.00;;;;;;4970125;28;20062;-58
2022/05/25 20:08:37;;;;;;;20.98;15.27;;;25.00;65.10;;;;;;4973150;28;20037;-50
2022/05/25 20:11:03;;;;;;;23.55;17.20;;;25.00;65.70;;;;;;4973331;28;20034;-53
2022/05/25 20:13:30;;;;;;;17.75;15.68;;;24.90;66.00;;;;;;4972924;28;20118;-57
2022/05/25 20:15:56;;;;;;;24.90;16.27;;;24.90;66.00;;;;;;4964165;28;20023;-58
2022/05/25 20:18:24;;;;;;;22.02;16.55;;;24.90;66.10;;;;;;4969598;28;20037;-61
2022/05/25 20:21:01;;;;;;;23.42;16.73;;;24.90;66.50;;;;;;4964511;28;20099;-60
2022/05/25 20:23:27;;;;;;;;;;;24.80;67.10;;;;;;4967478;28;20511;-59
2022/05/25 20:25:53;;;;;;;24.98;16.38;;;24.70;66.80;;;;;;4963696;28;19910;-57
2022/05/25 20:28:19;;;;;;;24.63;17.23;;;24.60;67.30;;;;;;4962820;28;20078;-60
2022/05/25 20:30:45;;;;;;;22.63;17.55;;;24.60;67.40;;;;;;4962605;28;20031;-59
2022/05/25 20:33:14;;;;;;;21.95;17.95;;;24.60;67.50;;;;;;4972614;28;20039;-58
2022/05/25 20:35:43;;;;;;;27.23;18.63;;;24.50;67.50;;;;;;4961975;28;20030;-60
2022/05/25 20:38:09;;;;;;;23.92;17.13;;;24.50;67.90;;;;;;4964844;28;20428;-59
2022/05/25 20:40:35;;;;;;;25.23;18.97;;;24.50;68.00;;;;;;4964449;28;20089;-59
2022/05/25 20:43:01;;;;;;;21.13;18.90;;;24.50;68.20;;;;;;4979160;28;20042;-60
2022/05/25 20:45:26;;;;;;;23.13;17.53;;;24.40;68.30;;;;;;4962486;28;20067;-57
2022/05/25 20:47:56;;;;;;;23.37;17.43;;;24.40;68.30;;;;;;4980370;28;20514;-60
2022/05/25 20:50:25;;;;;;;22.30;17.70;;;24.30;68.40;;;;;;4965344;28;20058;-60
2022/05/25 20:52:51;;;;;;;24.83;17.40;;;24.30;68.40;;;;;;4967406;28;20022;-60
2022/05/25 20:55:19;;;;;;;22.00;15.93;;;24.10;69.00;;;;;;4963725;28;20030;-60
2022/05/25 20:57:48;;;;;;;20.02;16.00;;;23.90;69.70;;;;;;4963457;28;20042;-59
2022/05/25 21:00:20;;;;;;;21.98;17.30;;;23.90;70.00;;;;;;4970457;28;20031;-60
2022/05/25 21:02:46;;;;;;;17.83;14.70;;;23.90;70.40;;;;;;4962674;28;20549;-58
2022/05/25 21:05:14;;;;;;;29.03;15.93;;;23.90;70.40;;;;;;4964710;28;20026;-59
2022/05/25 21:07:40;;;;;;;19.75;16.58;;;23.90;70.70;;;;;;4984631;28;20067;-60
2022/05/25 21:10:09;;;;;;;20.08;15.27;;;24.00;69.80;;;;;;4970290;28;20038;-57
2022/05/25 21:12:35;;;;;;;19.90;16.45;;;24.00;69.50;;;;;;4960870;28;20538;-58
2022/05/25 21:15:02;;;;;;;23.13;16.63;;;23.90;69.60;;;;;;4969975;28;20058;-59
2022/05/25 21:17:30;;;;;;;22.85;16.73;;;23.90;69.80;;;;;;4964782;28;20500;-60
2022/05/25 21:19:57;;;;;;;17.92;14.45;;;23.90;69.50;;;;;;4959096;28;20444;-60
2022/05/25 21:22:23;;;;;;;21.00;14.75;;;23.90;69.30;;;;;;4964444;28;20050;-60
2022/05/25 21:24:49;;;;;;;24.80;15.90;;;24.00;69.10;;;;;;4961902;28;20031;-59
2022/05/25 21:27:15;;;;;;;22.00;14.73;;;24.10;68.90;;;;;;4961825;28;20058;-59
2022/05/25 21:29:42;;;;;;;21.80;15.73;;;24.00;68.90;;;;;;4967588;28;20023;-58
2022/05/25 21:34:52;;;;;;;20.08;16.45;;;24.00;68.50;;;;;;4963292;28;19912;-59
2022/05/25 21:37:18;;;;;;;18.37;15.80;;;23.90;68.70;;;;;;4962232;28;20105;-60
2022/05/25 21:39:44;;;;;;;23.17;16.20;;;23.90;68.80;;;;;;4964741;28;20030;-58
2022/05/25 21:42:10;;;;;;;18.30;13.20;;;23.90;68.90;;;;;;4966991;28;20034;-60
2022/05/25 21:44:36;;;;;;;15.87;13.43;;;23.90;68.90;;;;;;4962304;28;20480;-60
2022/05/25 21:49:53;;;;;;;17.80;13.02;;;23.90;68.70;;;;;;4968005;28;20074;-60
2022/05/25 21:52:21;;;;;;;16.98;12.52;;;23.80;69.10;;;;;;4962826;28;20029;-58
2022/05/25 21:54:47;;;;;;;14.40;12.27;;;23.70;69.50;;;;;;4960978;28;20035;-58
2022/05/25 21:57:13;;;;;;;17.00;13.13;;;23.70;69.30;;;;;;4971051;28;20033;-60
2022/05/25 21:59:39;;;;;;;17.00;12.82;;;23.80;69.20;;;;;;4971482;28;20033;-58
2022/05/25 22:02:05;;;;;;;15.80;13.03;;;23.80;69.00;;;;;;4967184;28;20035;-59
2022/05/25 22:04:32;;;;;;;17.53;13.13;;;23.70;69.40;;;;;;4953718;28;20035;-57
2022/05/25 22:06:58;;;;;;;16.55;12.88;;;23.70;68.90;;;;;;4967152;28;20451;-57
2022/05/25 22:09:24;;;;;;;13.77;11.68;;;23.70;68.90;;;;;;4967465;28;20023;-57
2022/05/25 22:11:50;;;;;;;16.30;12.30;;;23.70;68.70;;;;;;4966009;28;20096;-60
2022/05/25 22:14:20;;;;;;;15.83;13.30;;;23.80;68.70;;;;;;4960526;28;20031;-58
2022/05/25 22:16:50;;;;;;;16.15;12.35;;;23.70;68.60;;;;;;4973029;28;20503;-57
2022/05/25 22:19:17;;;;;;;16.85;13.05;;;23.70;68.50;;;;;;4971624;28;20019;-57
2022/05/25 22:21:43;;;;;;;15.45;13.15;;;23.70;68.60;;;;;;4972572;28;20031;-58
2022/05/25 22:24:09;;;;;;;18.10;13.97;;;23.70;68.60;;;;;;4961057;28;20031;-58
2022/05/25 22:26:34;;;;;;;23.00;14.20;;;23.60;68.50;;;;;;4952282;29;20070;-60
2022/05/25 22:29:00;;;;;;;18.10;13.80;;;23.60;68.40;;;;;;4972805;28;20034;-61
2022/05/25 22:31:26;;;;;;;18.57;14.60;;;23.60;68.40;;;;;;4976633;28;20077;-58
2022/05/25 22:33:51;;;;;;;20.70;15.03;;;23.50;69.00;;;;;;4975321;28;20027;-59
2022/05/25 22:36:17;;;;;;;18.43;14.77;;;23.40;69.20;;;;;;4976653;28;20018;-60
2022/05/25 22:38:43;;;;;;;20.70;14.90;;;23.30;69.30;;;;;;4976573;28;20398;-60
2022/05/25 22:41:08;;;;;;;17.43;14.30;;;23.40;69.30;;;;;;4975817;28;20082;-59
2022/05/25 22:43:34;;;;;;;18.47;14.90;;;23.50;69.20;;;;;;4975913;28;20031;-59
2022/05/25 22:45:59;;;;;;;16.97;14.37;;;23.50;69.20;;;;;;4976404;28;20022;-60
2022/05/25 22:48:25;;;;;;;20.13;15.17;;;23.50;68.80;;;;;;4976270;28;20381;-60
2022/05/25 22:50:51;;;;;;;23.97;15.13;;;23.60;68.80;;;;;;4975854;28;20027;-58
2022/05/25 22:53:18;;;;;;;23.87;16.23;;;23.60;69.00;;;;;;4975086;28;20027;-59
2022/05/25 22:55:43;;;;;;;21.58;15.90;;;23.60;68.70;;;;;;4975192;28;20058;-60
2022/05/25 22:58:09;;;;;;;24.67;14.57;;;23.60;68.70;;;;;;4975939;28;20061;-59
2022/05/25 23:00:35;;;;;;;30.30;15.77;;;23.60;68.80;;;;;;4975376;28;20039;-59
2022/05/25 23:03:00;;;;;;;19.57;16.80;;;23.60;68.90;;;;;;4975836;28;20034;-56
2022/05/25 23:05:26;;;;;;;20.13;14.67;;;23.60;68.90;;;;;;4975701;28;20255;-60
2022/05/25 23:07:52;;;;;;;17.37;15.37;;;23.60;68.80;;;;;;4975685;28;20110;-59
2022/05/25 23:10:18;;;;;;;22.47;19.33;;;23.50;68.90;;;;;;4974450;28;20400;-58
2022/05/25 23:12:44;;;;;;;25.27;18.13;;;23.50;69.10;;;;;;4972683;28;20026;-58
2022/05/25 23:15:10;;;;;;;23.53;19.10;;;23.50;69.20;;;;;;4974653;28;20042;-57
2022/05/25 23:17:35;;;;;;;22.45;19.05;;;23.40;69.90;;;;;;4975719;28;20027;-60
2022/05/25 23:20:01;;;;;;;32.83;20.87;;;23.40;69.40;;;;;;4974880;28;20546;-60
2022/05/25 23:22:27;;;;;;;26.97;20.90;;;23.30;69.40;;;;;;4975377;28;20041;-58
2022/05/25 23:25:02;;;;;;;24.93;20.90;;;23.30;69.30;;;;;;4975369;28;20023;-58
2022/05/25 23:27:32;;;;;;;31.98;21.45;;;23.30;69.30;;;;;;4975647;28;20022;-60
2022/05/25 23:29:57;;;;;;;30.38;19.77;;;23.30;69.50;;;;;;4974955;28;20022;-60
2022/05/25 23:32:23;;;;;;;22.83;20.53;;;23.20;69.40;;;;;;4975597;28;20019;-60
2022/05/25 23:34:49;;;;;;;25.73;21.73;;;23.20;69.70;;;;;;4975419;28;20475;-58
2022/05/25 23:37:16;;;;;;;26.00;22.43;;;23.20;69.90;;;;;;4975445;28;20027;-60
2022/05/25 23:39:42;;;;;;;30.13;22.45;;;23.20;70.20;;;;;;4974712;28;20479;-58
2022/05/25 23:44:36;;;;;;;30.08;24.83;;;23.20;70.20;;;;;;4972226;28;20043;-60
2022/05/25 23:47:02;;;;;;;27.70;22.67;;;23.10;70.30;;;;;;4974540;28;20038;-58
2022/05/25 23:49:28;;;;;;;34.50;24.07;;;23.10;70.10;;;;;;4975305;28;20069;-59
2022/05/25 23:51:53;;;;;;;44.07;23.77;;;23.10;70.10;;;;;;4974865;28;20403;-59
2022/05/25 23:54:21;;;;;;;29.10;24.37;;;23.00;70.20;;;;;;4993008;28;20415;-59
2022/05/25 23:56:47;;;;;;;29.42;23.58;;;23.00;70.20;;;;;;4994615;28;20538;-59
2022/05/25 23:59:13;;;;;;;27.95;24.17;;;23.00;70.70;;;;;;4994079;28;20479;-58
